Terminal Aerodrome Forecast
Issued by NWS

Home | Current Version | Previous Version | Text Only | Print | Product List | Glossary On
Versions: 1 2 3 4 5 6 7 8 9 10 11 12 13 14 15
000
FTUS42 KTBW 250525
TAFLAL
TAF
KLAL 250525Z 2506/2606 VRB03KT P6SM SKC
     FM251400 14005KT P6SM FEW030 SCT250
     FM251800 19007KT P6SM VCTS SCT035CB SCT080 BKN250
     FM260200 VRB03KT P6SM FEW035 SCT250
      AMD NOT SKED TIL 251100=

USA.gov is the U.S. government's official web portal to all federal, state and local government web resources and services.